createdAt,value
2022-08-17T00:00:43.957Z,986.81
2022-08-17T00:01:24.116Z,986.80
2022-08-17T00:02:25.582Z,986.82
2022-08-17T00:03:23.818Z,986.79
2022-08-17T00:04:23.255Z,986.81
2022-08-17T00:05:23.411Z,986.79
2022-08-17T00:06:23.284Z,986.81
2022-08-17T00:07:23.265Z,986.82
2022-08-17T00:08:23.315Z,986.83
2022-08-17T00:09:23.495Z,986.86
2022-08-17T00:10:23.277Z,986.86
2022-08-17T00:11:23.665Z,986.89
2022-08-17T00:12:43.549Z,986.88
2022-08-17T00:13:23.379Z,986.88
2022-08-17T00:14:23.232Z,986.85
2022-08-17T00:15:23.219Z,986.85
2022-08-17T00:16:23.215Z,986.84
2022-08-17T00:17:23.331Z,986.86
2022-08-17T00:19:02.079Z,986.84
2022-08-17T00:19:23.350Z,986.89
2022-08-17T00:20:23.420Z,986.91
2022-08-17T00:21:23.918Z,986.91
2022-08-17T00:22:32.857Z,986.91
2022-08-17T00:23:23.654Z,986.96
2022-08-17T00:24:23.311Z,986.94
2022-08-17T00:25:23.338Z,986.95
2022-08-17T00:26:44.575Z,986.94
2022-08-17T00:27:23.142Z,987.02
2022-08-17T00:28:23.235Z,987.01
2022-08-17T00:29:23.132Z,986.99
2022-08-17T00:30:23.128Z,987.00
2022-08-17T00:31:23.353Z,987.01
2022-08-17T00:33:12.189Z,986.99
2022-08-17T00:33:23.677Z,986.99
2022-08-17T00:35:23.199Z,987.01
2022-08-17T00:36:23.114Z,986.99
2022-08-17T00:37:23.385Z,987.06
2022-08-17T00:38:23.152Z,987.06
2022-08-17T00:39:23.668Z,987.05
2022-08-17T00:40:24.757Z,987.06
2022-08-17T00:41:23.131Z,987.02
2022-08-17T00:42:26.367Z,987.04
2022-08-17T00:43:23.089Z,987.00
2022-08-17T00:44:23.314Z,987.00
2022-08-17T00:45:23.573Z,987.01
2022-08-17T00:46:23.312Z,986.99
2022-08-17T00:47:23.401Z,986.99
2022-08-17T00:48:29.134Z,986.99
2022-08-17T00:49:23.185Z,986.97
2022-08-17T00:50:23.254Z,986.98
2022-08-17T00:51:23.071Z,986.95
2022-08-17T00:52:23.036Z,986.96
2022-08-17T00:53:23.033Z,986.99
2022-08-17T00:54:23.235Z,986.97
2022-08-17T00:55:23.210Z,986.96
2022-08-17T00:56:23.236Z,987.00
2022-08-17T00:57:23.031Z,987.00
2022-08-17T00:58:28.684Z,987.01
2022-08-17T00:59:22.989Z,986.98
2022-08-17T01:00:23.297Z,986.98
2022-08-17T01:01:23.339Z,986.98
2022-08-17T01:02:22.989Z,986.98
2022-08-17T01:03:22.972Z,987.00
2022-08-17T01:04:23.164Z,987.00
2022-08-17T01:05:22.979Z,986.99
2022-08-17T01:06:22.966Z,987.01
2022-08-17T01:07:22.965Z,987.04
2022-08-17T01:08:23.002Z,987.04
2022-08-17T01:09:22.969Z,987.02
2022-08-17T01:10:58.349Z,987.07
2022-08-17T01:11:22.984Z,987.05
2022-08-17T01:12:23.500Z,987.03
2022-08-17T01:13:23.371Z,987.09
2022-08-17T01:14:23.217Z,987.09
2022-08-17T01:15:23.199Z,987.02
2022-08-17T01:16:22.935Z,987.02
2022-08-17T01:17:22.944Z,987.01
2022-08-17T01:18:22.902Z,986.98
2022-08-17T01:19:22.909Z,986.99
2022-08-17T01:20:22.898Z,986.98
2022-08-17T01:21:22.877Z,986.97
2022-08-17T01:22:22.934Z,986.96
2022-08-17T01:23:22.872Z,986.99
2022-08-17T01:24:22.866Z,986.97
2022-08-17T01:25:22.859Z,986.98
2022-08-17T01:26:22.873Z,986.97
2022-08-17T01:27:22.859Z,986.98
2022-08-17T01:28:52.299Z,986.97
2022-08-17T01:29:22.859Z,986.96
2022-08-17T01:30:57.047Z,986.98
2022-08-17T01:31:22.900Z,986.98
2022-08-17T01:32:22.911Z,986.97
2022-08-17T01:33:23.074Z,987.00
2022-08-17T01:34:22.890Z,987.04
2022-08-17T01:35:23.246Z,987.05
2022-08-17T01:36:22.862Z,987.03
2022-08-17T01:37:22.836Z,987.07
2022-08-17T01:38:26.010Z,987.08
2022-08-17T01:39:22.864Z,987.08
2022-08-17T01:40:22.868Z,987.06
2022-08-17T01:41:22.866Z,987.03
2022-08-17T01:42:22.822Z,987.00
2022-08-17T01:43:22.779Z,986.99
2022-08-17T01:44:22.820Z,987.00
2022-08-17T01:45:22.771Z,986.99
2022-08-17T01:46:22.753Z,987.01
2022-08-17T01:47:23.209Z,987.01
2022-08-17T01:48:22.743Z,987.03
2022-08-17T01:49:22.737Z,987.02
2022-08-17T01:50:22.786Z,987.03
2022-08-17T01:51:22.734Z,987.00
2022-08-17T01:52:22.736Z,987.00
2022-08-17T01:53:22.738Z,987.01
2022-08-17T01:54:22.734Z,986.98
2022-08-17T01:55:27.235Z,986.99
2022-08-17T01:56:22.728Z,986.99
2022-08-17T01:57:22.737Z,987.01
2022-08-17T01:58:22.722Z,987.03
2022-08-17T01:59:22.685Z,987.05
2022-08-17T02:00:22.711Z,987.06
2022-08-17T02:01:22.777Z,987.07
2022-08-17T02:02:31.051Z,987.06
2022-08-17T02:03:22.676Z,987.07
2022-08-17T02:04:22.918Z,987.08
2022-08-17T02:05:22.669Z,987.08
2022-08-17T02:06:27.525Z,987.05
2022-08-17T02:07:26.075Z,987.05
2022-08-17T02:08:37.198Z,987.03
2022-08-17T02:09:24.073Z,987.05
2022-08-17T02:10:22.670Z,987.04
2022-08-17T02:11:22.629Z,987.02
2022-08-17T02:12:38.381Z,987.05
2022-08-17T02:13:22.619Z,987.03
2022-08-17T02:14:22.634Z,987.03
2022-08-17T02:15:22.622Z,987.01
2022-08-17T02:16:22.617Z,987.02
2022-08-17T02:17:22.599Z,986.95
2022-08-17T02:18:22.625Z,986.97
2022-08-17T02:19:22.602Z,986.96
2022-08-17T02:20:42.496Z,986.99
2022-08-17T02:21:22.591Z,986.94
2022-08-17T02:22:22.582Z,986.97
2022-08-17T02:23:22.584Z,986.98
2022-08-17T02:24:58.570Z,986.98
2022-08-17T02:25:22.552Z,986.96
2022-08-17T02:26:25.541Z,986.93
2022-08-17T02:27:22.594Z,986.90
2022-08-17T02:28:22.571Z,986.92
2022-08-17T02:29:23.018Z,986.93
2022-08-17T02:30:59.618Z,986.90
2022-08-17T02:31:22.720Z,986.88
2022-08-17T02:32:27.644Z,986.92
2022-08-17T02:33:22.541Z,986.86
2022-08-17T02:34:22.601Z,986.87
2022-08-17T02:35:22.547Z,986.79
2022-08-17T02:36:26.896Z,986.80
2022-08-17T02:37:22.634Z,986.79
2022-08-17T02:38:22.543Z,986.78
2022-08-17T02:39:22.703Z,986.78
2022-08-17T02:40:35.880Z,986.82
2022-08-17T02:41:22.816Z,986.82
2022-08-17T02:42:22.635Z,986.83
2022-08-17T02:43:22.583Z,986.81
2022-08-17T02:44:39.199Z,986.79
2022-08-17T02:45:22.540Z,986.74
2022-08-17T02:46:22.692Z,986.79
2022-08-17T02:47:22.565Z,986.74
2022-08-17T02:48:30.813Z,986.72
2022-08-17T02:49:22.523Z,986.69
2022-08-17T02:50:22.499Z,986.71
2022-08-17T02:51:22.556Z,986.74
2022-08-17T02:52:43.162Z,986.72
2022-08-17T02:53:22.413Z,986.76
2022-08-17T02:54:41.680Z,986.75
2022-08-17T02:55:22.674Z,986.76
2022-08-17T02:57:22.514Z,986.77
2022-08-17T02:58:29.635Z,986.77
2022-08-17T02:59:22.423Z,986.72
2022-08-17T03:00:22.406Z,986.74
2022-08-17T03:01:22.759Z,986.72
2022-08-17T03:02:22.993Z,986.73
2022-08-17T03:03:22.501Z,986.73
2022-08-17T03:04:22.400Z,986.72
2022-08-17T03:05:22.408Z,986.70
2022-08-17T03:06:22.362Z,986.71
2022-08-17T03:07:22.646Z,986.71
2022-08-17T03:08:22.418Z,986.72
2022-08-17T03:09:22.333Z,986.73
2022-08-17T03:10:22.439Z,986.76
2022-08-17T03:11:22.573Z,986.75
2022-08-17T03:12:22.458Z,986.77
2022-08-17T03:13:22.498Z,986.73
2022-08-17T03:14:26.148Z,986.77
2022-08-17T03:16:22.329Z,986.78
2022-08-17T03:17:22.392Z,986.80
2022-08-17T03:18:24.918Z,986.79
2022-08-17T03:19:22.374Z,986.77
2022-08-17T03:20:22.539Z,986.74
2022-08-17T03:21:22.432Z,986.74
2022-08-17T03:22:36.426Z,986.71
2022-08-17T03:23:24.018Z,986.70
2022-08-17T03:24:28.654Z,986.72
2022-08-17T03:25:22.646Z,986.69
2022-08-17T03:26:22.419Z,986.72
2022-08-17T03:27:22.364Z,986.72
2022-08-17T03:28:22.488Z,986.72
2022-08-17T03:29:22.462Z,986.73
2022-08-17T03:30:22.212Z,986.75
2022-08-17T03:31:22.214Z,986.75
2022-08-17T03:32:22.205Z,986.73
2022-08-17T03:33:22.460Z,986.73
2022-08-17T03:34:22.331Z,986.74
2022-08-17T03:35:22.290Z,986.73
2022-08-17T03:36:22.245Z,986.78
2022-08-17T03:37:22.241Z,986.78
2022-08-17T03:38:22.404Z,986.76
2022-08-17T03:39:22.241Z,986.81
2022-08-17T03:40:39.865Z,986.79
2022-08-17T03:41:22.309Z,986.79
2022-08-17T03:42:32.564Z,986.82
2022-08-17T03:43:22.383Z,986.77
2022-08-17T03:44:22.329Z,986.80
2022-08-17T03:45:22.224Z,986.80
2022-08-17T03:46:34.568Z,986.78
2022-08-17T03:47:22.267Z,986.80
2022-08-17T03:48:22.229Z,986.81
2022-08-17T03:49:22.212Z,986.85
2022-08-17T03:50:22.158Z,986.86
2022-08-17T03:51:22.415Z,986.86
2022-08-17T03:52:22.183Z,986.83
2022-08-17T03:53:22.173Z,986.86
2022-08-17T03:54:22.229Z,986.85
2022-08-17T03:55:22.323Z,986.82
2022-08-17T03:56:22.235Z,986.83
2022-08-17T03:57:22.238Z,986.79
2022-08-17T03:58:22.262Z,986.78
2022-08-17T03:59:22.537Z,986.80
2022-08-17T04:00:22.344Z,986.79
2022-08-17T04:01:22.372Z,986.78
2022-08-17T04:02:22.204Z,986.75
2022-08-17T04:03:22.180Z,986.76
2022-08-17T04:04:27.764Z,986.78
2022-08-17T04:05:22.184Z,986.74
2022-08-17T04:06:22.492Z,986.77
2022-08-17T04:07:22.198Z,986.77
2022-08-17T04:08:22.028Z,986.80
2022-08-17T04:09:22.110Z,986.80
2022-08-17T04:10:26.294Z,986.82
2022-08-17T04:11:22.069Z,986.82
2022-08-17T04:12:22.179Z,986.78
2022-08-17T04:13:24.209Z,986.80
2022-08-17T04:14:22.045Z,986.80
2022-08-17T04:15:22.016Z,986.81
2022-08-17T04:16:22.134Z,986.81
2022-08-17T04:17:22.245Z,986.79
2022-08-17T04:18:22.139Z,986.83
2022-08-17T04:19:22.063Z,986.78
2022-08-17T04:20:22.120Z,986.81
2022-08-17T04:21:21.956Z,986.80
2022-08-17T04:22:31.454Z,986.77
2022-08-17T04:23:21.941Z,986.83
2022-08-17T04:24:22.010Z,986.82
2022-08-17T04:25:22.668Z,986.81
2022-08-17T04:26:53.102Z,986.84
2022-08-17T04:27:22.186Z,986.85
2022-08-17T04:28:21.935Z,986.83
2022-08-17T04:29:21.904Z,986.88
2022-08-17T04:30:22.235Z,986.91
2022-08-17T04:31:21.926Z,986.93
2022-08-17T04:32:25.144Z,986.94
2022-08-17T04:33:21.915Z,986.98
2022-08-17T04:34:22.215Z,987.00
2022-08-17T04:35:21.936Z,987.00
2022-08-17T04:36:22.010Z,987.02
2022-08-17T04:37:21.982Z,987.05
2022-08-17T04:38:21.912Z,987.02
2022-08-17T04:39:22.239Z,987.04
2022-08-17T04:40:22.021Z,987.07
2022-08-17T04:41:22.069Z,987.09
2022-08-17T04:42:21.962Z,987.09
2022-08-17T04:43:22.062Z,987.08
2022-08-17T04:44:37.012Z,987.09
2022-08-17T04:45:21.976Z,987.09
2022-08-17T04:46:21.883Z,987.07
2022-08-17T04:47:22.446Z,987.10
2022-08-17T04:48:22.185Z,987.10
2022-08-17T04:49:22.027Z,987.09
2022-08-17T04:50:21.790Z,987.12
2022-08-17T04:51:21.824Z,987.11
2022-08-17T04:52:32.242Z,987.14
2022-08-17T04:53:22.146Z,987.16
2022-08-17T04:54:22.029Z,987.17
2022-08-17T04:55:22.190Z,987.16
2022-08-17T04:56:21.935Z,987.18
2022-08-17T04:57:21.890Z,987.19
2022-08-17T04:58:22.369Z,987.20
2022-08-17T04:59:21.869Z,987.25
2022-08-17T05:00:22.522Z,987.28
2022-08-17T05:01:23.946Z,987.28
2022-08-17T05:02:21.823Z,987.27
2022-08-17T05:03:21.787Z,987.29
2022-08-17T05:04:34.559Z,987.33
2022-08-17T05:05:21.725Z,987.38
2022-08-17T05:06:21.886Z,987.37
2022-08-17T05:07:24.627Z,987.37
2022-08-17T05:08:21.864Z,987.39
2022-08-17T05:09:21.998Z,987.34
2022-08-17T05:10:21.852Z,987.30
2022-08-17T05:11:21.899Z,987.29
2022-08-17T05:12:22.034Z,987.29
2022-08-17T05:13:21.691Z,987.32
2022-08-17T05:14:21.755Z,987.35
2022-08-17T05:15:21.767Z,987.32
2022-08-17T05:16:22.117Z,987.34
2022-08-17T05:17:21.875Z,987.35
2022-08-17T05:18:21.927Z,987.30
2022-08-17T05:19:21.656Z,987.34
2022-08-17T05:20:21.695Z,987.31
2022-08-17T05:21:21.731Z,987.34
2022-08-17T05:22:21.698Z,987.34
2022-08-17T05:23:21.725Z,987.36
2022-08-17T05:24:40.726Z,987.39
2022-08-17T05:25:25.525Z,987.41
2022-08-17T05:26:26.110Z,987.38
2022-08-17T05:27:21.617Z,987.41
2022-08-17T05:28:24.170Z,987.33
2022-08-17T05:29:21.750Z,987.32
2022-08-17T05:30:21.687Z,987.37
2022-08-17T05:31:21.733Z,987.34
2022-08-17T05:32:38.770Z,987.39
2022-08-17T05:33:21.646Z,987.36
2022-08-17T05:34:21.792Z,987.36
2022-08-17T05:35:21.628Z,987.34
2022-08-17T05:36:43.621Z,987.36
2022-08-17T05:37:21.595Z,987.35
2022-08-17T05:38:21.849Z,987.39
2022-08-17T05:39:21.728Z,987.35
2022-08-17T05:40:21.641Z,987.40
2022-08-17T05:41:21.564Z,987.37
2022-08-17T05:42:21.546Z,987.36
2022-08-17T05:43:21.881Z,987.40
2022-08-17T05:44:21.574Z,987.41
2022-08-17T05:45:28.096Z,987.43
2022-08-17T05:46:21.533Z,987.42
2022-08-17T05:47:21.611Z,987.42
2022-08-17T05:48:21.643Z,987.44
2022-08-17T05:49:21.775Z,987.45
2022-08-17T05:50:25.763Z,987.43
2022-08-17T05:51:21.763Z,987.47
2022-08-17T05:52:21.827Z,987.45
2022-08-17T05:53:21.822Z,987.49
2022-08-17T05:54:21.888Z,987.48
2022-08-17T05:55:22.048Z,987.46
2022-08-17T05:56:29.546Z,987.50
2022-08-17T05:57:21.729Z,987.49
2022-08-17T05:58:21.757Z,987.51
2022-08-17T05:59:22.607Z,987.53
2022-08-17T06:01:21.920Z,987.51
2022-08-17T06:02:22.044Z,987.49
2022-08-17T06:03:21.713Z,987.49
2022-08-17T06:04:21.887Z,987.49
2022-08-17T06:05:21.685Z,987.45
2022-08-17T06:06:21.625Z,987.45
2022-08-17T06:07:21.827Z,987.44
2022-08-17T06:08:21.785Z,987.44
2022-08-17T06:09:27.660Z,987.45
2022-08-17T06:10:21.527Z,987.50
2022-08-17T06:11:22.782Z,987.51
2022-08-17T06:12:21.550Z,987.54
2022-08-17T06:13:21.843Z,987.53
2022-08-17T06:14:21.698Z,987.52
2022-08-17T06:15:21.802Z,987.50
2022-08-17T06:16:33.224Z,987.49
2022-08-17T06:17:21.714Z,987.54
2022-08-17T06:18:21.728Z,987.54
2022-08-17T06:19:21.638Z,987.51
2022-08-17T06:20:21.965Z,987.55
2022-08-17T06:21:23.737Z,987.56
2022-08-17T06:22:21.431Z,987.58
2022-08-17T06:23:21.568Z,987.58
2022-08-17T06:24:21.726Z,987.57
2022-08-17T06:25:21.390Z,987.59
2022-08-17T06:26:21.659Z,987.59
2022-08-17T06:27:21.447Z,987.59
2022-08-17T06:28:21.515Z,987.59
2022-08-17T06:29:21.939Z,987.63
2022-08-17T06:30:21.386Z,987.58
2022-08-17T06:31:21.414Z,987.57
2022-08-17T06:32:21.435Z,987.55
2022-08-17T06:33:21.419Z,987.54
2022-08-17T06:34:21.380Z,987.53
2022-08-17T06:35:21.604Z,987.54
2022-08-17T06:36:21.659Z,987.51
2022-08-17T06:37:21.831Z,987.55
2022-08-17T06:38:37.934Z,987.53
2022-08-17T06:39:21.616Z,987.51
2022-08-17T06:40:21.554Z,987.53
2022-08-17T06:41:21.451Z,987.51
2022-08-17T06:43:05.243Z,987.54
2022-08-17T06:43:21.473Z,987.50
2022-08-17T06:44:43.630Z,987.54
2022-08-17T06:45:22.041Z,987.56
2022-08-17T06:46:21.298Z,987.57
2022-08-17T06:47:28.717Z,987.56
2022-08-17T06:48:21.340Z,987.53
2022-08-17T06:49:21.785Z,987.54
2022-08-17T06:50:21.732Z,987.51
2022-08-17T06:51:21.561Z,987.52
2022-08-17T06:52:45.520Z,987.51
2022-08-17T06:53:21.563Z,987.50
2022-08-17T06:54:21.582Z,987.50
2022-08-17T06:55:21.470Z,987.49
2022-08-17T06:56:21.552Z,987.53
2022-08-17T06:57:21.461Z,987.49
2022-08-17T06:58:21.493Z,987.50
2022-08-17T06:59:21.225Z,987.47
2022-08-17T07:00:21.541Z,987.46
2022-08-17T07:01:21.493Z,987.47
2022-08-17T07:02:29.465Z,987.53
2022-08-17T07:03:21.490Z,987.52
2022-08-17T07:04:21.214Z,987.49
2022-08-17T07:05:21.569Z,987.49
2022-08-17T07:06:21.434Z,987.51
2022-08-17T07:07:21.400Z,987.45
2022-08-17T07:08:22.689Z,987.48
2022-08-17T07:09:21.231Z,987.42
2022-08-17T07:10:21.548Z,987.44
2022-08-17T07:11:21.382Z,987.43
2022-08-17T07:12:21.173Z,987.44
2022-08-17T07:13:21.258Z,987.41
2022-08-17T07:14:21.721Z,987.43
2022-08-17T07:15:21.541Z,987.45
2022-08-17T07:16:21.384Z,987.42
2022-08-17T07:17:21.452Z,987.42
2022-08-17T07:18:21.345Z,987.42
2022-08-17T07:19:21.235Z,987.43
2022-08-17T07:20:21.496Z,987.38
2022-08-17T07:21:25.847Z,987.43
2022-08-17T07:22:21.317Z,987.40
2022-08-17T07:23:21.309Z,987.40
2022-08-17T07:24:26.349Z,987.42
2022-08-17T07:25:21.383Z,987.43
2022-08-17T07:26:21.263Z,987.41
2022-08-17T07:27:21.243Z,987.38
2022-08-17T07:28:21.151Z,987.43
2022-08-17T07:29:21.213Z,987.40
2022-08-17T07:30:21.435Z,987.36
2022-08-17T07:31:21.239Z,987.36
2022-08-17T07:32:21.265Z,987.34
2022-08-17T07:33:21.265Z,987.31
2022-08-17T07:34:21.168Z,987.35
2022-08-17T07:35:21.353Z,987.30
2022-08-17T07:36:21.460Z,987.32
2022-08-17T07:37:21.377Z,987.32
2022-08-17T07:38:24.906Z,987.33
2022-08-17T07:39:21.119Z,987.37
2022-08-17T07:40:21.314Z,987.34
2022-08-17T07:41:21.277Z,987.39
2022-08-17T07:42:21.472Z,987.39
2022-08-17T07:43:21.904Z,987.38
2022-08-17T07:44:21.543Z,987.42
2022-08-17T07:45:21.308Z,987.43
2022-08-17T07:46:21.324Z,987.49
2022-08-17T07:48:21.197Z,987.47
2022-08-17T07:49:21.108Z,987.44
2022-08-17T07:50:25.709Z,987.47
2022-08-17T07:51:21.203Z,987.52
2022-08-17T07:52:47.624Z,987.52
2022-08-17T07:53:21.225Z,987.55
2022-08-17T07:54:21.086Z,987.55
2022-08-17T07:55:21.117Z,987.54
2022-08-17T07:56:21.079Z,987.51
2022-08-17T07:57:21.095Z,987.50
2022-08-17T07:58:21.131Z,987.51
2022-08-17T07:59:23.944Z,987.52
2022-08-17T08:00:24.378Z,987.54
2022-08-17T08:01:21.152Z,987.60
2022-08-17T08:02:21.338Z,987.58
2022-08-17T08:03:21.240Z,987.59
2022-08-17T08:04:29.146Z,987.62
2022-08-17T08:05:46.706Z,987.56
2022-08-17T08:06:21.088Z,987.58
2022-08-17T08:07:21.076Z,987.63
2022-08-17T08:08:21.060Z,987.62
2022-08-17T08:09:21.199Z,987.63
2022-08-17T08:10:21.059Z,987.62
2022-08-17T08:11:21.082Z,987.61
2022-08-17T08:12:21.155Z,987.62
2022-08-17T08:13:21.110Z,987.56
2022-08-17T08:14:21.083Z,987.54
2022-08-17T08:15:21.044Z,987.53
2022-08-17T08:16:21.241Z,987.57
2022-08-17T08:17:21.093Z,987.52
2022-08-17T08:18:53.706Z,987.55
2022-08-17T08:20:42.441Z,987.54
2022-08-17T08:21:21.192Z,987.58
2022-08-17T08:22:21.280Z,987.60
2022-08-17T08:23:21.181Z,987.66
2022-08-17T08:24:21.085Z,987.65
2022-08-17T08:25:21.292Z,987.58
2022-08-17T08:26:21.098Z,987.62
2022-08-17T08:27:21.128Z,987.60
2022-08-17T08:28:21.117Z,987.60
2022-08-17T08:29:21.294Z,987.69
2022-08-17T08:30:21.263Z,987.72
2022-08-17T08:31:21.057Z,987.65
2022-08-17T08:32:21.291Z,987.67
2022-08-17T08:33:21.112Z,987.59
2022-08-17T08:34:45.013Z,987.63
2022-08-17T08:35:21.110Z,987.67
2022-08-17T08:37:12.771Z,987.62
2022-08-17T08:37:32.577Z,987.61
2022-08-17T08:38:21.077Z,987.67
2022-08-17T08:40:21.771Z,987.65
2022-08-17T08:41:21.575Z,987.69
2022-08-17T08:42:22.102Z,987.68
2022-08-17T08:43:21.426Z,987.69
2022-08-17T08:44:21.471Z,987.67
2022-08-17T08:45:21.309Z,987.65
2022-08-17T08:46:21.079Z,987.67
2022-08-17T08:47:21.291Z,987.67
2022-08-17T08:48:23.031Z,987.67
2022-08-17T08:49:33.810Z,987.64
2022-08-17T08:50:38.145Z,987.66
2022-08-17T08:51:21.075Z,987.65
2022-08-17T08:52:21.078Z,987.61
2022-08-17T08:53:21.086Z,987.64
2022-08-17T08:54:26.802Z,987.60
2022-08-17T08:55:21.436Z,987.66
2022-08-17T08:56:21.109Z,987.64
2022-08-17T08:57:27.992Z,987.59
2022-08-17T08:58:32.302Z,987.57
2022-08-17T08:59:21.120Z,987.62
2022-08-17T09:00:21.228Z,987.58
2022-08-17T09:01:21.144Z,987.59
2022-08-17T09:02:21.102Z,987.60
2022-08-17T09:03:31.576Z,987.56
2022-08-17T09:04:25.162Z,987.58
2022-08-17T09:05:21.097Z,987.54
2022-08-17T09:06:33.282Z,987.57
2022-08-17T09:07:21.101Z,987.60
2022-08-17T09:08:21.114Z,987.56
2022-08-17T09:09:21.104Z,987.50
2022-08-17T09:10:21.101Z,987.47
2022-08-17T09:11:21.158Z,987.48
2022-08-17T09:12:21.118Z,987.44
2022-08-17T09:13:21.113Z,987.48
2022-08-17T09:14:28.203Z,987.50
2022-08-17T09:15:21.098Z,987.51
2022-08-17T09:16:21.123Z,987.49
2022-08-17T09:17:21.141Z,987.48
2022-08-17T09:19:01.610Z,987.45
2022-08-17T09:19:21.114Z,987.40
2022-08-17T09:20:28.182Z,987.42
2022-08-17T09:21:21.368Z,987.40
2022-08-17T09:22:21.109Z,987.39
2022-08-17T09:23:21.122Z,987.41
2022-08-17T09:24:21.135Z,987.36
2022-08-17T09:25:21.144Z,987.38
2022-08-17T09:26:21.128Z,987.39
2022-08-17T09:27:21.121Z,987.33
2022-08-17T09:28:21.134Z,987.36
2022-08-17T09:29:21.139Z,987.28
2022-08-17T09:30:21.128Z,987.32
2022-08-17T09:31:21.158Z,987.24
2022-08-17T09:32:21.158Z,987.26
2022-08-17T09:33:21.147Z,987.26
2022-08-17T09:34:21.131Z,987.21
2022-08-17T09:35:21.243Z,987.18
2022-08-17T09:36:21.152Z,987.16
2022-08-17T09:37:21.170Z,987.13
2022-08-17T09:38:21.146Z,987.15
2022-08-17T09:39:21.182Z,987.19
2022-08-17T09:40:21.232Z,987.17
2022-08-17T09:41:21.337Z,987.17
2022-08-17T09:42:21.151Z,987.20
2022-08-17T09:43:21.157Z,987.20
2022-08-17T09:44:23.222Z,987.20
2022-08-17T09:45:21.383Z,987.19
2022-08-17T09:46:21.170Z,987.19
2022-08-17T09:47:21.163Z,987.17
2022-08-17T09:48:21.163Z,987.18
2022-08-17T09:49:25.156Z,987.19
2022-08-17T09:51:03.914Z,987.20
2022-08-17T09:51:21.177Z,987.18
2022-08-17T09:52:21.192Z,987.21
2022-08-17T09:53:21.159Z,987.16
2022-08-17T09:54:38.470Z,987.20
2022-08-17T09:55:21.189Z,987.23
2022-08-17T09:56:21.416Z,987.27
2022-08-17T09:57:36.101Z,987.19
2022-08-17T09:58:21.201Z,987.24
2022-08-17T09:59:21.197Z,987.24
2022-08-17T10:00:21.180Z,987.14
2022-08-17T10:01:21.506Z,987.15
2022-08-17T10:02:21.451Z,987.10
2022-08-17T10:03:21.193Z,987.11
2022-08-17T10:04:23.757Z,987.05
2022-08-17T10:05:21.196Z,987.11
2022-08-17T10:06:22.363Z,987.07
2022-08-17T10:07:21.213Z,987.12
2022-08-17T10:08:21.719Z,987.10
2022-08-17T10:09:23.235Z,987.11
2022-08-17T10:10:21.921Z,987.11
2022-08-17T10:11:21.458Z,987.08
2022-08-17T10:12:21.252Z,987.08
2022-08-17T10:13:21.227Z,987.03
2022-08-17T10:14:36.822Z,987.03
2022-08-17T10:15:21.223Z,987.01
2022-08-17T10:16:21.219Z,986.97
2022-08-17T10:17:21.209Z,986.97
2022-08-17T10:18:21.217Z,986.99
2022-08-17T10:19:21.259Z,987.00
2022-08-17T10:20:21.213Z,987.01
2022-08-17T10:21:21.257Z,987.01
2022-08-17T10:22:35.211Z,987.02
2022-08-17T10:23:21.447Z,986.99
2022-08-17T10:24:21.232Z,986.97
2022-08-17T10:25:24.195Z,986.92
2022-08-17T10:26:21.229Z,986.98
2022-08-17T10:27:21.240Z,986.96
2022-08-17T10:28:24.686Z,986.91
2022-08-17T10:29:21.600Z,986.95
2022-08-17T10:30:21.711Z,986.95
2022-08-17T10:31:36.924Z,986.96
2022-08-17T10:32:21.256Z,986.96
2022-08-17T10:33:21.236Z,986.94
2022-08-17T10:34:21.239Z,986.97
2022-08-17T10:35:21.248Z,986.90
2022-08-17T10:36:21.247Z,986.94
2022-08-17T10:37:21.248Z,986.93
2022-08-17T10:38:21.522Z,986.93
2022-08-17T10:39:21.245Z,986.92
2022-08-17T10:40:21.327Z,986.91
2022-08-17T10:41:21.264Z,986.88
2022-08-17T10:42:30.301Z,986.90
2022-08-17T10:43:21.272Z,986.88
2022-08-17T10:44:39.216Z,986.90
2022-08-17T10:45:21.277Z,986.89
2022-08-17T10:46:30.863Z,986.88
2022-08-17T10:47:21.267Z,986.87
2022-08-17T10:48:21.280Z,986.85
2022-08-17T10:49:21.268Z,986.85
2022-08-17T10:50:21.271Z,986.87
2022-08-17T10:51:21.268Z,986.83
2022-08-17T10:52:21.268Z,986.81
2022-08-17T10:53:21.272Z,986.82
2022-08-17T10:54:21.283Z,986.88
2022-08-17T10:55:21.288Z,986.86
2022-08-17T10:56:21.289Z,986.82
2022-08-17T10:57:21.283Z,986.77
2022-08-17T10:58:21.296Z,986.81
2022-08-17T10:59:21.997Z,986.82
2022-08-17T11:00:27.042Z,986.76
2022-08-17T11:01:21.341Z,986.76
2022-08-17T11:02:21.314Z,986.72
2022-08-17T11:03:21.315Z,986.65
2022-08-17T11:04:21.294Z,986.62
2022-08-17T11:05:21.295Z,986.66
2022-08-17T11:06:21.307Z,986.68
2022-08-17T11:07:21.300Z,986.71
2022-08-17T11:08:21.505Z,986.73
2022-08-17T11:09:21.321Z,986.75
2022-08-17T11:10:21.325Z,986.72
2022-08-17T11:11:21.298Z,986.73
2022-08-17T11:12:21.322Z,986.74
2022-08-17T11:13:21.315Z,986.67
2022-08-17T11:14:21.316Z,986.71
2022-08-17T11:15:21.798Z,986.71
2022-08-17T11:16:21.322Z,986.70
2022-08-17T11:17:21.315Z,986.70
2022-08-17T11:18:21.322Z,986.68
2022-08-17T11:19:21.330Z,986.72
2022-08-17T11:20:21.317Z,986.68
2022-08-17T11:21:21.351Z,986.74
2022-08-17T11:22:21.682Z,986.68
2022-08-17T11:23:21.340Z,986.70
2022-08-17T11:24:21.347Z,986.67
2022-08-17T11:25:21.320Z,986.70
2022-08-17T11:26:21.323Z,986.69
2022-08-17T11:27:21.331Z,986.72
2022-08-17T11:28:21.342Z,986.70
2022-08-17T11:29:21.350Z,986.70
2022-08-17T11:30:21.335Z,986.71
2022-08-17T11:31:21.364Z,986.74
2022-08-17T11:32:21.364Z,986.71
2022-08-17T11:33:21.354Z,986.73
2022-08-17T11:34:21.657Z,986.69
2022-08-17T11:35:25.134Z,986.62
2022-08-17T11:36:21.461Z,986.59
2022-08-17T11:37:21.652Z,986.57
2022-08-17T11:39:21.504Z,986.58
2022-08-17T11:40:21.533Z,986.57
2022-08-17T11:41:21.745Z,986.52
2022-08-17T11:42:21.638Z,986.60
2022-08-17T11:43:22.097Z,986.61
2022-08-17T11:44:21.768Z,986.58
2022-08-17T11:45:32.139Z,986.59
2022-08-17T11:46:21.901Z,986.59
2022-08-17T11:47:21.871Z,986.62
2022-08-17T11:48:28.157Z,986.58
2022-08-17T11:49:21.392Z,986.61
2022-08-17T11:50:25.724Z,986.61
2022-08-17T11:51:21.403Z,986.63
2022-08-17T11:52:21.374Z,986.64
2022-08-17T11:53:21.373Z,986.66
2022-08-17T11:54:32.951Z,986.66
2022-08-17T11:55:35.419Z,986.66
2022-08-17T11:56:21.374Z,986.64
2022-08-17T11:57:21.405Z,986.65
2022-08-17T11:58:21.411Z,986.66
2022-08-17T11:59:21.389Z,986.69
2022-08-17T12:00:21.400Z,986.65
2022-08-17T12:01:21.438Z,986.68
2022-08-17T12:02:21.400Z,986.64
2022-08-17T12:03:21.445Z,986.62
2022-08-17T12:04:21.446Z,986.65
2022-08-17T12:05:21.620Z,986.59
2022-08-17T12:06:21.429Z,986.63
2022-08-17T12:07:21.401Z,986.69
2022-08-17T12:08:21.412Z,986.63
2022-08-17T12:09:21.462Z,986.63
2022-08-17T12:10:21.718Z,986.63
2022-08-17T12:11:55.101Z,986.62
2022-08-17T12:12:21.624Z,986.62
2022-08-17T12:13:21.452Z,986.59
2022-08-17T12:14:29.527Z,986.58
2022-08-17T12:15:21.437Z,986.57
2022-08-17T12:16:21.423Z,986.58
2022-08-17T12:17:39.258Z,986.56
2022-08-17T12:18:21.418Z,986.54
2022-08-17T12:19:21.416Z,986.54
2022-08-17T12:20:21.621Z,986.52
2022-08-17T12:21:21.443Z,986.49
2022-08-17T12:22:21.576Z,986.52
2022-08-17T12:23:21.424Z,986.51
2022-08-17T12:24:21.812Z,986.52
2022-08-17T12:25:21.439Z,986.49
2022-08-17T12:26:21.467Z,986.47
2022-08-17T12:27:21.427Z,986.53
2022-08-17T12:28:21.868Z,986.44
2022-08-17T12:29:38.325Z,986.48
2022-08-17T12:30:21.503Z,986.44
2022-08-17T12:31:21.628Z,986.40
2022-08-17T12:32:21.471Z,986.38
2022-08-17T12:33:28.046Z,986.31
2022-08-17T12:34:21.474Z,986.30
2022-08-17T12:35:21.441Z,986.33
2022-08-17T12:36:21.446Z,986.37